createdAt,value
2022-08-14T00:02:18.768Z,22.10
2022-08-14T00:04:46.434Z,22.10
2022-08-14T00:07:14.563Z,22.10
2022-08-14T00:10:01.651Z,22.20
2022-08-14T00:12:39.368Z,22.20
2022-08-14T00:15:14.972Z,22.20
2022-08-14T00:17:47.795Z,22.20
2022-08-14T00:20:30.947Z,22.20
2022-08-14T00:23:12.127Z,22.20
2022-08-14T00:25:42.969Z,22.20
2022-08-14T00:28:15.530Z,22.20
2022-08-14T00:30:47.370Z,22.20
2022-08-14T00:33:16.104Z,22.20
2022-08-14T00:36:39.428Z,22.20
2022-08-14T00:38:34.831Z,22.20
2022-08-14T00:41:10.963Z,22.10
2022-08-14T00:43:43.240Z,22.10
2022-08-14T00:46:32.347Z,22.20
2022-08-14T00:49:02.144Z,22.10
2022-08-14T00:51:34.512Z,22.10
2022-08-14T00:54:11.052Z,22.10
2022-08-14T00:56:55.529Z,22.10
2022-08-14T00:59:28.564Z,22.10
2022-08-14T01:01:59.587Z,22.10
2022-08-14T01:04:37.888Z,22.10
2022-08-14T01:07:20.667Z,22.10
2022-08-14T01:09:51.514Z,22.00
2022-08-14T01:12:26.855Z,22.00
2022-08-14T01:15:02.450Z,22.00
2022-08-14T01:17:54.566Z,22.00
2022-08-14T01:20:41.417Z,22.00
2022-08-14T01:23:16.505Z,22.00
2022-08-14T01:25:51.358Z,22.00
2022-08-14T01:28:46.876Z,21.90
2022-08-14T01:31:15.804Z,22.00
2022-08-14T01:35:15.820Z,21.90
2022-08-14T01:36:39.126Z,21.90
2022-08-14T01:39:17.679Z,21.90
2022-08-14T01:41:58.248Z,21.90
2022-08-14T01:44:32.826Z,21.80
2022-08-14T01:47:12.363Z,21.80
2022-08-14T01:49:59.769Z,21.80
2022-08-14T01:52:58.699Z,21.70
2022-08-14T01:55:23.234Z,21.70
2022-08-14T01:58:01.332Z,21.70
2022-08-14T02:00:39.299Z,21.70
2022-08-14T02:03:07.275Z,21.70
2022-08-14T02:05:38.080Z,21.70
2022-08-14T02:08:09.798Z,21.70
2022-08-14T02:10:46.478Z,21.70
2022-08-14T02:13:17.347Z,21.60
2022-08-14T02:15:45.769Z,21.60
2022-08-14T02:18:16.634Z,21.50
2022-08-14T02:20:48.792Z,21.50
2022-08-14T02:23:23.940Z,21.50
2022-08-14T02:26:24.262Z,21.50
2022-08-14T02:28:58.466Z,21.50
2022-08-14T02:31:42.581Z,21.50
2022-08-14T02:34:19.983Z,21.50
2022-08-14T02:37:06.690Z,21.50
2022-08-14T02:39:43.877Z,21.40
2022-08-14T02:42:17.525Z,21.40
2022-08-14T02:44:51.130Z,21.40
2022-08-14T02:47:20.930Z,21.30
2022-08-14T02:49:50.672Z,21.30
2022-08-14T02:52:26.743Z,21.20
2022-08-14T02:54:54.657Z,21.10
2022-08-14T02:57:39.869Z,21.10
2022-08-14T03:00:12.035Z,21.10
2022-08-14T03:02:56.241Z,21.20
2022-08-14T03:05:32.866Z,21.10
2022-08-14T03:08:16.142Z,21.20
2022-08-14T03:10:49.001Z,21.10
2022-08-14T03:13:21.045Z,21.10
2022-08-14T03:15:55.979Z,21.10
2022-08-14T03:18:31.563Z,21.10
2022-08-14T03:21:02.361Z,21.10
2022-08-14T03:23:37.785Z,21.10
2022-08-14T03:26:13.191Z,21.00
2022-08-14T03:28:52.636Z,21.00
2022-08-14T03:31:25.969Z,21.00
2022-08-14T03:33:56.819Z,21.00
2022-08-14T03:37:39.107Z,21.00
2022-08-14T03:39:23.035Z,21.00
2022-08-14T03:41:54.094Z,21.00
2022-08-14T03:45:18.932Z,21.00
2022-08-14T03:47:11.773Z,21.00
2022-08-14T03:49:42.258Z,21.00
2022-08-14T03:52:38.596Z,21.00
2022-08-14T03:54:59.353Z,20.90
2022-08-14T03:57:32.374Z,20.80
2022-08-14T04:00:03.741Z,20.70
2022-08-14T04:02:46.690Z,20.70
2022-08-14T04:05:16.679Z,20.70
2022-08-14T04:07:49.607Z,20.70
2022-08-14T04:10:32.113Z,20.70
2022-08-14T04:13:06.086Z,20.70
2022-08-14T04:15:55.983Z,20.70
2022-08-14T04:18:22.271Z,20.70
2022-08-14T04:20:54.785Z,20.70
2022-08-14T04:23:29.738Z,20.70
2022-08-14T04:26:08.119Z,20.70
2022-08-14T04:29:09.078Z,20.70
2022-08-14T04:32:57.334Z,20.80
2022-08-14T04:34:17.196Z,20.80
2022-08-14T04:37:07.443Z,20.90
2022-08-14T04:39:57.300Z,20.90
2022-08-14T04:42:58.307Z,21.00
2022-08-14T04:45:30.528Z,21.10
2022-08-14T04:48:13.109Z,21.30
2022-08-14T04:50:49.004Z,21.30
2022-08-14T04:53:34.649Z,21.40
2022-08-14T04:56:06.100Z,21.50
2022-08-14T04:58:39.193Z,21.50
2022-08-14T05:01:12.938Z,21.60
2022-08-14T05:03:47.309Z,21.70
2022-08-14T05:06:38.336Z,21.80
2022-08-14T05:09:02.776Z,21.90
2022-08-14T05:11:33.371Z,22.00
2022-08-14T05:14:16.949Z,22.10
2022-08-14T05:16:52.754Z,22.10
2022-08-14T05:19:29.466Z,22.10
2022-08-14T05:22:16.549Z,22.20
2022-08-14T05:24:48.530Z,22.30
2022-08-14T05:27:19.917Z,22.40
2022-08-14T05:29:57.125Z,22.60
2022-08-14T05:32:27.225Z,22.70
2022-08-14T05:34:58.316Z,22.80
2022-08-14T05:37:28.218Z,22.80
2022-08-14T05:39:58.397Z,23.00
2022-08-14T05:42:29.146Z,23.00
2022-08-14T05:45:00.136Z,23.00
2022-08-14T05:47:33.723Z,23.00
2022-08-14T05:50:18.944Z,23.00
2022-08-14T05:52:51.498Z,23.00
2022-08-14T05:55:21.992Z,23.00
2022-08-14T05:57:57.845Z,23.00
2022-08-14T06:00:36.947Z,23.20
2022-08-14T06:03:16.532Z,23.50
2022-08-14T06:05:46.030Z,23.80
2022-08-14T06:08:36.115Z,24.20
2022-08-14T06:11:06.862Z,24.60
2022-08-14T06:13:44.787Z,25.30
2022-08-14T06:16:17.551Z,25.60
2022-08-14T06:18:52.502Z,25.70
2022-08-14T06:21:22.676Z,26.20
2022-08-14T06:23:50.599Z,26.90
2022-08-14T06:26:20.852Z,27.60
2022-08-14T06:28:52.460Z,28.20
2022-08-14T06:31:22.601Z,28.70
2022-08-14T06:35:02.187Z,29.40
2022-08-14T06:36:39.486Z,30.00
2022-08-14T06:39:10.028Z,30.60
2022-08-14T06:41:58.452Z,31.80
2022-08-14T06:44:32.348Z,32.10
2022-08-14T06:47:02.975Z,32.30
2022-08-14T06:49:31.082Z,32.20
2022-08-14T06:52:11.593Z,32.60
2022-08-14T06:54:43.613Z,33.50
2022-08-14T06:57:12.498Z,34.00
2022-08-14T06:59:41.684Z,34.60
2022-08-14T07:02:28.849Z,35.10
2022-08-14T07:05:16.964Z,35.70
2022-08-14T07:07:50.869Z,36.20
2022-08-14T07:10:18.400Z,36.40
2022-08-14T07:13:01.423Z,37.10
2022-08-14T07:15:33.759Z,37.10
2022-08-14T07:18:08.611Z,37.40
2022-08-14T07:20:39.734Z,38.00
2022-08-14T07:23:20.834Z,38.40
2022-08-14T07:25:51.414Z,38.30
2022-08-14T07:28:29.180Z,37.90
2022-08-14T07:31:05.259Z,38.40
2022-08-14T07:33:41.810Z,38.50
2022-08-14T07:36:27.380Z,37.90
2022-08-14T07:38:59.715Z,38.50
2022-08-14T07:41:33.939Z,39.40
2022-08-14T07:44:29.742Z,39.80
2022-08-14T07:46:50.195Z,39.60
2022-08-14T07:49:18.475Z,39.80
2022-08-14T07:51:49.664Z,40.10
2022-08-14T07:54:23.171Z,40.00
2022-08-14T07:57:00.040Z,40.00
2022-08-14T07:59:42.690Z,39.90
2022-08-14T08:02:18.628Z,39.20
2022-08-14T08:04:54.623Z,39.80
2022-08-14T08:07:30.216Z,39.80
2022-08-14T08:10:00.809Z,39.90
2022-08-14T08:12:32.319Z,39.60
2022-08-14T08:15:03.146Z,39.90
2022-08-14T08:17:42.542Z,40.60
2022-08-14T08:20:20.204Z,41.60
2022-08-14T08:22:55.593Z,41.20
2022-08-14T08:25:27.787Z,41.70
2022-08-14T08:27:59.298Z,42.00
2022-08-14T08:30:27.722Z,41.70
2022-08-14T08:32:58.587Z,42.10
2022-08-14T08:35:32.918Z,41.90
2022-08-14T08:39:16.331Z,41.40
2022-08-14T08:41:05.483Z,41.70
2022-08-14T08:43:46.716Z,41.80
2022-08-14T08:46:21.345Z,41.20
2022-08-14T08:51:42.813Z,41.10
2022-08-14T08:54:20.020Z,41.20
2022-08-14T08:56:53.933Z,41.30
2022-08-14T08:59:27.091Z,41.60
2022-08-14T09:02:10.208Z,41.70
2022-08-14T09:04:53.568Z,41.40
2022-08-14T09:07:28.018Z,41.50
2022-08-14T09:09:58.911Z,41.70
2022-08-14T09:12:32.878Z,42.20
2022-08-14T09:15:02.434Z,42.00
2022-08-14T09:17:30.006Z,42.20
2022-08-14T09:19:57.655Z,41.60
2022-08-14T09:22:36.070Z,42.00
2022-08-14T09:25:07.508Z,42.20
2022-08-14T09:27:38.054Z,42.30
2022-08-14T09:30:12.675Z,42.20
2022-08-14T09:32:58.619Z,42.00
2022-08-14T09:35:48.650Z,42.20
2022-08-14T09:38:43.987Z,42.00
2022-08-14T09:42:20.543Z,42.20
2022-08-14T09:44:42.792Z,42.10
2022-08-14T09:47:16.998Z,41.10
2022-08-14T09:49:52.083Z,41.00
2022-08-14T09:52:33.788Z,40.80
2022-08-14T09:55:02.743Z,41.30
2022-08-14T09:57:31.490Z,41.70
2022-08-14T10:00:28.629Z,41.70
2022-08-14T10:03:05.151Z,41.40
2022-08-14T10:05:37.952Z,41.20
2022-08-14T10:08:25.214Z,41.10
2022-08-14T10:11:01.612Z,41.20
2022-08-14T10:13:43.291Z,41.50
2022-08-14T10:16:25.783Z,41.90
2022-08-14T10:19:07.077Z,41.80
2022-08-14T10:21:38.918Z,41.90
2022-08-14T10:24:36.518Z,41.30
2022-08-14T10:27:17.025Z,41.60
2022-08-14T10:29:49.551Z,41.60
2022-08-14T10:32:28.530Z,41.00
2022-08-14T10:35:13.776Z,41.10
2022-08-14T10:37:46.465Z,41.00
2022-08-14T10:40:37.657Z,41.10
2022-08-14T10:43:23.196Z,41.10
2022-08-14T10:46:03.454Z,41.40
2022-08-14T10:49:03.956Z,41.00
2022-08-14T10:51:35.354Z,41.10
2022-08-14T10:54:16.939Z,40.80
2022-08-14T10:56:57.889Z,40.90
2022-08-14T10:59:30.730Z,41.20
2022-08-14T11:02:00.016Z,40.90
2022-08-14T11:04:30.616Z,40.60
2022-08-14T11:06:59.315Z,40.20
2022-08-14T11:09:31.458Z,39.50
2022-08-14T11:12:33.107Z,38.30
2022-08-14T11:15:02.317Z,36.70
2022-08-14T11:17:36.150Z,35.80
2022-08-14T11:20:06.895Z,35.40
2022-08-14T11:22:57.038Z,35.10
2022-08-14T11:25:43.300Z,34.70
2022-08-14T11:28:19.462Z,34.60
2022-08-14T11:30:53.716Z,34.40
2022-08-14T11:33:24.406Z,34.30
2022-08-14T11:35:51.967Z,34.30
2022-08-14T11:38:21.402Z,34.00
2022-08-14T11:40:49.030Z,33.70
2022-08-14T11:43:16.788Z,33.60
2022-08-14T11:45:50.383Z,33.60
2022-08-14T11:49:04.408Z,33.70
2022-08-14T11:51:17.867Z,33.70
2022-08-14T11:53:51.396Z,33.90
2022-08-14T11:56:19.871Z,34.00
2022-08-14T11:58:54.918Z,34.00
2022-08-14T12:01:28.565Z,34.00
2022-08-14T12:04:07.746Z,34.00
2022-08-14T12:06:52.354Z,33.90
2022-08-14T12:09:36.735Z,33.90
2022-08-14T12:12:47.322Z,33.80
2022-08-14T12:15:07.308Z,33.70
2022-08-14T12:17:49.718Z,33.60
2022-08-14T12:20:32.132Z,33.60
2022-08-14T12:23:02.161Z,33.50
2022-08-14T12:25:34.611Z,33.60
2022-08-14T12:28:27.040Z,33.80
2022-08-14T12:30:58.426Z,33.70
2022-08-14T12:33:33.758Z,33.90
2022-08-14T12:36:09.947Z,33.90
2022-08-14T12:38:43.560Z,34.00
2022-08-14T12:41:21.047Z,33.90
2022-08-14T12:43:53.563Z,34.00
2022-08-14T12:46:27.466Z,33.80
2022-08-14T12:48:58.759Z,33.80
2022-08-14T12:51:28.659Z,33.60
2022-08-14T12:54:00.268Z,33.70
2022-08-14T12:56:32.914Z,33.70
2022-08-14T12:59:03.379Z,33.60
2022-08-14T13:01:59.084Z,33.40
2022-08-14T13:04:23.003Z,33.20
2022-08-14T13:06:51.761Z,33.30
2022-08-14T13:09:20.076Z,33.20
2022-08-14T13:11:58.571Z,33.10
2022-08-14T13:14:29.976Z,33.10
2022-08-14T13:16:58.691Z,33.10
2022-08-14T13:19:28.475Z,32.80
2022-08-14T13:22:05.474Z,32.90
2022-08-14T13:24:39.912Z,32.80
2022-08-14T13:27:09.817Z,32.80
2022-08-14T13:29:43.962Z,32.90
2022-08-14T13:32:15.315Z,32.90
2022-08-14T13:34:47.284Z,32.90
2022-08-14T13:37:17.327Z,33.00
2022-08-14T13:39:57.001Z,33.00
2022-08-14T13:42:30.601Z,33.10
2022-08-14T13:45:04.829Z,33.10
2022-08-14T13:47:33.089Z,33.00
2022-08-14T13:50:04.630Z,33.10
2022-08-14T13:52:54.763Z,33.20
2022-08-14T13:55:27.865Z,33.40
2022-08-14T13:58:03.266Z,33.70
2022-08-14T14:00:51.666Z,33.80
2022-08-14T14:03:22.118Z,33.90
2022-08-14T14:05:55.276Z,34.10
2022-08-14T14:08:45.775Z,34.20
2022-08-14T14:11:16.486Z,34.10
2022-08-14T14:13:46.479Z,34.00
2022-08-14T14:16:26.090Z,34.10
2022-08-14T14:19:09.778Z,34.40
2022-08-14T14:21:40.730Z,34.60
2022-08-14T14:24:14.989Z,34.60
2022-08-14T14:26:50.154Z,34.40
2022-08-14T14:29:24.221Z,34.30
2022-08-14T14:31:54.497Z,34.40
2022-08-14T14:34:30.244Z,34.30
2022-08-14T14:37:04.549Z,34.20
2022-08-14T14:39:37.562Z,34.10
2022-08-14T14:42:09.215Z,34.00
2022-08-14T14:44:40.588Z,34.10
2022-08-14T14:47:09.921Z,33.70
2022-08-14T14:49:51.284Z,33.60
2022-08-14T14:52:27.881Z,33.60
2022-08-14T14:54:58.332Z,33.60
2022-08-14T14:57:35.727Z,33.60
2022-08-14T15:00:13.194Z,33.60
2022-08-14T15:02:57.873Z,33.30
2022-08-14T15:05:28.627Z,33.30
2022-08-14T15:07:56.480Z,33.30
2022-08-14T15:10:27.879Z,33.30
2022-08-14T15:13:04.194Z,33.30
2022-08-14T15:15:37.120Z,33.30
2022-08-14T15:18:10.156Z,33.40
2022-08-14T15:20:57.464Z,33.40
2022-08-14T15:23:32.299Z,33.40
2022-08-14T15:26:24.313Z,33.30
2022-08-14T15:29:02.138Z,33.10
2022-08-14T15:31:34.936Z,32.90
2022-08-14T15:34:45.808Z,32.80
2022-08-14T15:37:12.705Z,32.80
2022-08-14T15:39:41.865Z,32.60
2022-08-14T15:42:16.092Z,32.70
2022-08-14T15:44:57.252Z,32.70
2022-08-14T15:47:29.397Z,32.80
2022-08-14T15:50:00.494Z,32.60
2022-08-14T15:52:32.420Z,32.50
2022-08-14T15:55:10.539Z,32.40
2022-08-14T15:58:02.144Z,32.50
2022-08-14T16:00:49.372Z,32.50
2022-08-14T16:03:18.105Z,32.50
2022-08-14T16:05:53.030Z,32.50
2022-08-14T16:08:27.005Z,32.40
2022-08-14T16:11:03.970Z,32.50
2022-08-14T16:13:39.907Z,32.40
2022-08-14T16:16:34.655Z,32.50
2022-08-14T16:19:10.642Z,32.50
2022-08-14T16:22:02.232Z,32.40
2022-08-14T16:24:33.422Z,32.30
2022-08-14T16:27:01.775Z,32.20
2022-08-14T16:29:35.718Z,32.20
2022-08-14T16:32:33.365Z,32.00
2022-08-14T16:34:56.006Z,32.00
2022-08-14T16:37:30.644Z,31.80
2022-08-14T16:40:02.835Z,31.80
2022-08-14T16:42:39.074Z,31.70
2022-08-14T16:45:24.181Z,31.70
2022-08-14T16:47:51.761Z,31.60
2022-08-14T16:50:43.570Z,31.60
2022-08-14T16:53:09.646Z,31.60
2022-08-14T16:55:51.129Z,31.50
2022-08-14T16:58:27.098Z,31.40
2022-08-14T17:01:24.606Z,31.40
2022-08-14T17:03:56.667Z,31.30
2022-08-14T17:06:45.579Z,31.20
2022-08-14T17:09:31.415Z,31.10
2022-08-14T17:12:07.486Z,31.00
2022-08-14T17:14:54.065Z,31.00
2022-08-14T17:17:57.721Z,30.90
2022-08-14T17:20:53.227Z,30.70
2022-08-14T17:23:14.479Z,30.50
2022-08-14T17:28:51.280Z,30.30
2022-08-14T17:31:17.346Z,30.20
2022-08-14T17:33:52.417Z,30.10
2022-08-14T17:36:23.882Z,30.00
2022-08-14T17:39:02.627Z,29.90
2022-08-14T17:42:02.873Z,29.80
2022-08-14T17:44:44.846Z,29.80
2022-08-14T17:47:14.505Z,29.70
2022-08-14T17:49:52.042Z,29.60
2022-08-14T17:52:34.215Z,29.50
2022-08-14T17:55:08.272Z,29.40
2022-08-14T17:57:40.991Z,29.40
2022-08-14T18:00:14.897Z,29.20
2022-08-14T18:02:50.991Z,29.20
2022-08-14T18:05:22.921Z,29.20
2022-08-14T18:08:32.916Z,29.10
2022-08-14T18:10:56.246Z,29.00
2022-08-14T18:13:50.774Z,28.90
2022-08-14T18:16:20.602Z,28.80
2022-08-14T18:18:51.573Z,28.70
2022-08-14T18:21:42.624Z,28.70
2022-08-14T18:24:20.318Z,28.60
2022-08-14T18:27:08.846Z,28.60
2022-08-14T18:30:36.395Z,28.50
2022-08-14T18:32:54.945Z,28.50
2022-08-14T18:35:45.897Z,28.40
2022-08-14T18:38:45.614Z,28.40
2022-08-14T18:41:37.392Z,28.40
2022-08-14T18:44:10.355Z,28.30
2022-08-14T18:47:15.944Z,28.30
2022-08-14T18:50:03.722Z,28.30
2022-08-14T18:52:53.389Z,28.20
2022-08-14T18:55:21.439Z,28.20
2022-08-14T18:57:57.957Z,28.20
2022-08-14T19:00:39.983Z,28.20
2022-08-14T19:03:31.234Z,28.10
2022-08-14T19:06:00.691Z,28.10
2022-08-14T19:08:38.085Z,28.10
2022-08-14T19:11:32.044Z,28.00
2022-08-14T19:14:04.644Z,27.90
2022-08-14T19:16:43.228Z,27.90
2022-08-14T19:19:17.150Z,27.90
2022-08-14T19:21:56.554Z,27.90
2022-08-14T19:24:44.174Z,27.80
2022-08-14T19:27:26.147Z,27.80
2022-08-14T19:30:20.386Z,27.80
2022-08-14T19:32:53.119Z,27.70
2022-08-14T19:35:48.630Z,27.60
2022-08-14T19:38:47.589Z,27.60
2022-08-14T19:41:16.217Z,27.60
2022-08-14T19:43:55.998Z,27.60
2022-08-14T19:46:37.706Z,27.60
2022-08-14T19:49:07.229Z,27.50
2022-08-14T19:51:45.037Z,27.60
2022-08-14T19:54:13.741Z,27.60
2022-08-14T19:56:45.740Z,27.60
2022-08-14T19:59:19.824Z,27.60
2022-08-14T20:01:51.627Z,27.60
2022-08-14T20:04:46.594Z,27.60
2022-08-14T20:07:59.599Z,27.60
2022-08-14T20:11:12.427Z,27.70
2022-08-14T20:13:23.661Z,27.70
2022-08-14T20:15:51.523Z,27.70
2022-08-14T20:18:48.744Z,27.70
2022-08-14T20:21:14.887Z,27.70
2022-08-14T20:23:42.318Z,27.70
2022-08-14T20:26:31.552Z,27.70
2022-08-14T20:29:04.392Z,27.70
2022-08-14T20:31:36.346Z,27.60
2022-08-14T20:34:19.381Z,27.50
2022-08-14T20:37:10.215Z,27.50
2022-08-14T20:39:43.486Z,27.30
2022-08-14T20:42:34.801Z,27.20
2022-08-14T20:45:23.773Z,27.00
2022-08-14T20:48:01.263Z,26.90
2022-08-14T20:50:29.848Z,26.80
2022-08-14T20:53:00.060Z,26.80
2022-08-14T20:55:37.189Z,26.60
2022-08-14T20:58:44.861Z,26.60
2022-08-14T21:01:19.706Z,26.40
2022-08-14T21:03:58.415Z,26.40
2022-08-14T21:07:23.227Z,26.30
2022-08-14T21:09:21.243Z,26.30
2022-08-14T21:12:34.303Z,26.30
2022-08-14T21:14:56.246Z,26.30
2022-08-14T21:17:26.466Z,26.30
2022-08-14T21:19:54.463Z,26.30
2022-08-14T21:22:21.854Z,26.30
2022-08-14T21:24:49.679Z,26.30
2022-08-14T21:27:37.278Z,26.40
2022-08-14T21:30:08.915Z,26.40
2022-08-14T21:32:47.078Z,26.40
2022-08-14T21:35:22.796Z,26.50
2022-08-14T21:37:52.137Z,26.50
2022-08-14T21:40:42.527Z,26.50
2022-08-14T21:43:19.499Z,26.50
2022-08-14T21:45:53.424Z,26.40
2022-08-14T21:48:25.013Z,26.30
2022-08-14T21:51:00.322Z,26.30
2022-08-14T21:53:32.834Z,26.20
2022-08-14T21:56:03.536Z,26.10
2022-08-14T21:58:53.259Z,26.10
2022-08-14T22:01:20.465Z,26.00
2022-08-14T22:03:55.237Z,25.80
2022-08-14T22:06:28.564Z,25.70
2022-08-14T22:08:58.324Z,25.60
2022-08-14T22:11:27.455Z,25.60
2022-08-14T22:14:02.194Z,25.50
2022-08-14T22:17:00.745Z,25.40
2022-08-14T22:19:20.892Z,25.40
2022-08-14T22:21:50.978Z,25.40
2022-08-14T22:24:37.604Z,25.40
2022-08-14T22:27:06.954Z,25.40
2022-08-14T22:29:34.532Z,25.40
2022-08-14T22:32:07.199Z,25.40
2022-08-14T22:34:34.912Z,25.40
2022-08-14T22:37:02.675Z,25.40
2022-08-14T22:40:15.325Z,25.40
2022-08-14T22:42:22.915Z,25.40
2022-08-14T22:44:56.439Z,25.40
2022-08-14T22:47:26.111Z,25.30
2022-08-14T22:50:30.779Z,25.30
2022-08-14T22:52:59.175Z,25.30
2022-08-14T22:55:27.861Z,25.20
2022-08-14T22:57:55.345Z,25.10
2022-08-14T23:00:25.634Z,25.10
2022-08-14T23:03:01.846Z,25.10
2022-08-14T23:05:38.661Z,25.10
2022-08-14T23:09:00.326Z,25.10
2022-08-14T23:10:58.163Z,25.00
2022-08-14T23:13:26.424Z,25.00
2022-08-14T23:15:59.162Z,25.10
2022-08-14T23:18:29.854Z,25.00
2022-08-14T23:20:57.766Z,25.00
2022-08-14T23:23:25.270Z,25.00
2022-08-14T23:26:00.651Z,24.90
2022-08-14T23:28:56.683Z,24.80
2022-08-14T23:31:35.560Z,24.80
2022-08-14T23:34:06.865Z,24.70
2022-08-14T23:36:37.256Z,24.70
2022-08-14T23:39:12.141Z,24.70
2022-08-14T23:41:52.762Z,24.70
2022-08-14T23:44:23.484Z,24.70
2022-08-14T23:46:56.913Z,24.70
2022-08-14T23:49:56.560Z,24.70
2022-08-14T23:52:51.379Z,24.70
2022-08-14T23:55:06.177Z,24.70
2022-08-14T23:57:44.046Z,24.70
